Disclaimer

Please do not use the information listed here in-flight or in-navigation, as they are not provided to us by the airports but are provided by volunteers, so they might be outdated.

Search


Regions


Airport information page

No radio frequency information is available.

Airport informations:
Latitude: 07° 35' 59.66" S
Longitude: 072° 46' 10.16" W
Elevation: 637 feet - 194 meters
Operating hours: Remarks
Operating agency: Civil government, landing fees and diplomatic clearance may be required
Timezone: UTC-5(-4DT)
Fuel: Jet A1, without icing nhibitor.

100/130 octane gasoline, leaded, MIL-L-5572F (GREEN)

Runway information:
10/28 - 7874 x 148 feet< - >2400 x 45 meters

Recent METARs:
SBCZ 122000Z 02007KT 9999 FEW030 FEW035TCU BKN100 31/24 Q1004
SBCZ 122000Z 02007KT 9999 FEW030 FEW035TCU BKN100 31/24 Q1004
SBCZ 122100Z 02008KT 9999 SCT030 BKN100 32/25 Q1004

Airport on the map: